This is the latest recevied weather packets stored in our database for station/object N0TKN. If no packets are shown the sender has not sent any weather packets the latest 10 day(s).
| Time | Temp. | Humidity | Pressure | Rain* | Wind** | Luminosity | Snow |
|---|---|---|---|---|---|---|---|
| 1777680917 | 16.11° C | 42% | 1015.7 hPa | 0 mm | - | 43 W/m² | - |
| 1777680317 | 16.67° C | 41% | 1015.5 hPa | 0 mm | - | 59 W/m² | - |
| 1777679717 | 16.67° C | 41% | 1015.6 hPa | 0 mm | - | 52 W/m² | - |
| 1777679118 | 16.67° C | 41% | 1015.1 hPa | 0 mm | - | 114 W/m² | - |
| 1777678517 | 16.67° C | 41% | 1015.2 hPa | 0 mm | - | 105 W/m² | - |
| 1777677918 | 16.67° C | 40% | 1015.4 hPa | 0 mm | - | 85 W/m² | - |
| 1777677317 | 16.67° C | 39% | 1015.2 hPa | 0 mm | - | 111 W/m² | - |
| 1777676718 | 17.22° C | 38% | 1015.1 hPa | 0 mm | - | 127 W/m² | - |
| 1777676118 | 17.22° C | 37% | 1015.1 hPa | 0 mm | - | 142 W/m² | - |
| 1777675515 | 17.78° C | 36% | 1015.1 hPa | 0 mm | - | 144 W/m² | - |
| 1777674916 | 17.78° C | 36% | 1014.7 hPa | 0 mm | - | 335 W/m² | - |
| 1777674318 | 17.78° C | 36% | 1015.1 hPa | 0 mm | - | 229 W/m² | - |
| 1777673716 | 17.78° C | 34% | 1014.5 hPa | 0 mm | - | 379 W/m² | - |
| 1777673116 | 17.22° C | 35% | 1015.2 hPa | 0 mm | - | 310 W/m² | - |
| 1777672517 | 17.78° C | 35% | 1015.7 hPa | 0 mm | - | 212 W/m² | - |
| 1777671916 | 18.33° C | 35% | 1014.8 hPa | 0 mm | - | 429 W/m² | - |
| 1777671317 | 17.78° C | 35% | 1015.7 hPa | 0 mm | - | 346 W/m² | - |
| 1777670717 | 18.33° C | 34% | 1015.1 hPa | 0 mm | - | 685 W/m² | - |
| 1777670116 | 17.78° C | 34% | 1015.3 hPa | 0 mm | - | 597 W/m² | - |
| 1777669517 | 17.78° C | 34% | 1016.3 hPa | 0 mm | - | 253 W/m² | - |
| 1777668917 | 17.78° C | 33% | 1016.2 hPa | 0 mm | - | 382 W/m² | - |
| 1777668317 | 17.22° C | 35% | 1016.5 hPa | 0 mm | - | 507 W/m² | - |
| 1777667718 | 17.22° C | 34% | 1016.8 hPa | 0 mm | - | 425 W/m² | - |
| 1777667118 | 17.22° C | 35% | 1016.4 hPa | 0 mm | - | 512 W/m² | - |
| 1777666518 | 17.22° C | 35% | 1016.6 hPa | 0 mm | - | 620 W/m² | - |
* Rain latest hour (hover to see other rain measurements)
** Current wind speed in m/s (hover to see current wind gust speed)